Time;durP1;ratioP1;P1;durP2;ratioP2;P2;SDS_P1;SDS_P2;PMS_P1;PMS_P2;Temp;Humidity;BMP_temperature;BMP_pressure;BME280_temperature;BME280_humidity;BME280_pressure;Samples;Min_cycle;Max_cycle;Signal;HPM_P1;HPM_P2
2022/09/01 00:03:22;;;;;;;0.30;0.30;;;;;;;;;;10464723;28;21047;-70
2022/09/01 00:08:24;;;;;;;0.30;0.30;;;;;;;;;;10468444;28;20262;-70
2022/09/01 00:13:25;;;;;;;0.20;0.20;;;;;;;;;;10498180;28;20210;-70
2022/09/01 00:18:26;;;;;;;0.30;0.30;;;;;;;;;;10470844;28;20213;-70
2022/09/01 00:23:28;;;;;;;1.13;0.30;;;;;;;;;;10469306;28;20219;-70
2022/09/01 00:28:31;;;;;;;0.30;0.30;;;;;;;;;;10471997;28;20266;-70
2022/09/01 00:33:34;;;;;;;0.40;0.40;;;;;;;;;;10454478;28;20433;-69
2022/09/01 00:38:35;;;;;;;0.30;0.30;;;;;;;;;;10476518;28;20312;-70
2022/09/01 00:43:38;;;;;;;0.20;0.20;;;;;;;;;;10487424;28;20237;-70
2022/09/01 00:48:40;;;;;;;0.20;0.20;;;;;;;;;;10462182;28;20218;-70
2022/09/01 00:53:42;;;;;;;0.20;0.20;;;;;;;;;;10459625;28;20607;-70
2022/09/01 00:58:44;;;;;;;0.20;0.20;;;;;;;;;;10489047;28;20576;-69
2022/09/01 01:03:45;;;;;;;1.00;0.30;;;;;;;;;;10458959;28;20202;-70
2022/09/01 01:08:55;;;;;;;0.80;0.30;;;;;;;;;;10480042;28;20769;-70
2022/09/01 01:13:58;;;;;;;0.30;0.30;;;;;;;;;;10494456;28;20210;-69
2022/09/01 01:18:59;;;;;;;0.30;0.30;;;;;;;;;;10476348;28;20273;-70
2022/09/01 01:24:06;;;;;;;0.30;0.30;;;;;;;;;;10476735;28;20719;-70
2022/09/01 01:29:08;;;;;;;0.20;0.20;;;;;;;;;;10473444;28;20214;-70
2022/09/01 01:34:10;;;;;;;0.30;0.30;;;;;;;;;;10484897;28;20209;-70
2022/09/01 01:39:13;;;;;;;0.30;0.30;;;;;;;;;;10475725;28;20214;-70
2022/09/01 01:44:20;;;;;;;0.45;0.28;;;;;;;;;;10458698;28;20214;-70
2022/09/01 01:49:23;;;;;;;0.20;0.20;;;;;;;;;;10471924;28;20210;-70
2022/09/01 01:54:28;;;;;;;0.20;0.20;;;;;;;;;;10463624;28;20214;-70
2022/09/01 01:59:29;;;;;;;0.70;0.28;;;;;;;;;;10461864;28;20222;-70
2022/09/01 02:04:32;;;;;;;0.30;0.30;;;;;;;;;;10455455;28;20838;-70
2022/09/01 02:09:42;;;;;;;0.30;0.30;;;;;;;;;;10452407;28;20216;-70
2022/09/01 02:14:43;;;;;;;1.00;0.30;;;;;;;;;;10473030;28;20233;-69
2022/09/01 02:19:46;;;;;;;0.30;0.30;;;;;;;;;;10456389;28;20321;-70
2022/09/01 02:24:47;;;;;;;0.30;0.30;;;;;;;;;;10475683;28;20420;-69
2022/09/01 02:29:54;;;;;;;0.30;0.30;;;;;;;;;;10464765;28;20209;-70
2022/09/01 02:35:00;;;;;;;0.30;0.30;;;;;;;;;;10486227;28;20343;-70
2022/09/01 02:40:01;;;;;;;0.20;0.20;;;;;;;;;;10455308;28;20249;-70
2022/09/01 02:45:03;;;;;;;0.40;0.40;;;;;;;;;;10487975;28;20206;-70
2022/09/01 02:50:05;;;;;;;1.10;0.30;;;;;;;;;;10479142;28;20305;-70
2022/09/01 02:55:07;;;;;;;0.22;0.22;;;;;;;;;;10466094;28;20211;-70
2022/09/01 03:00:19;;;;;;;0.30;0.30;;;;;;;;;;10454200;28;20242;-70
2022/09/01 03:05:27;;;;;;;1.55;0.38;;;;;;;;;;10454429;28;20222;-70
2022/09/01 03:10:34;;;;;;;1.45;0.25;;;;;;;;;;10438601;28;20214;-70
2022/09/01 03:15:36;;;;;;;0.30;0.30;;;;;;;;;;10459486;28;20682;-70
2022/09/01 03:20:38;;;;;;;0.38;0.38;;;;;;;;;;10422054;28;20723;-70
2022/09/01 03:25:41;;;;;;;0.30;0.30;;;;;;;;;;10421901;28;20673;-69
2022/09/01 03:30:45;;;;;;;0.30;0.30;;;;;;;;;;10448827;28;20224;-69
2022/09/01 03:35:47;;;;;;;0.20;0.20;;;;;;;;;;10463065;28;20220;-69
2022/09/01 03:40:50;;;;;;;1.45;0.38;;;;;;;;;;10451104;28;20905;-70
2022/09/01 03:45:53;;;;;;;0.30;0.30;;;;;;;;;;10495983;28;20275;-70
2022/09/01 03:50:56;;;;;;;0.30;0.30;;;;;;;;;;10474202;28;20213;-69
2022/09/01 03:55:58;;;;;;;0.35;0.35;;;;;;;;;;10479464;28;20210;-70
2022/09/01 04:01:01;;;;;;;0.63;0.30;;;;;;;;;;10464899;28;20892;-69
2022/09/01 04:06:02;;;;;;;0.47;0.30;;;;;;;;;;10491772;28;20221;-70
2022/09/01 04:11:10;;;;;;;1.10;0.32;;;;;;;;;;10478597;28;20221;-70
2022/09/01 04:21:45;;;;;;;0.30;0.30;;;;;;;;;;10479269;28;20218;-70
2022/09/01 04:26:48;;;;;;;0.30;0.30;;;;;;;;;;10464098;28;20219;-69
2022/09/01 04:31:50;;;;;;;0.30;0.30;;;;;;;;;;10464091;28;20210;-70
2022/09/01 04:36:54;;;;;;;0.55;0.30;;;;;;;;;;10466216;28;20268;-71
2022/09/01 04:41:55;;;;;;;1.80;0.25;;;;;;;;;;10477157;28;20209;-71
2022/09/01 04:46:56;;;;;;;0.30;0.30;;;;;;;;;;10479052;28;20359;-71
2022/09/01 04:51:57;;;;;;;0.40;0.40;;;;;;;;;;10455519;28;20221;-72
2022/09/01 04:56:59;;;;;;;0.30;0.30;;;;;;;;;;10488186;28;20222;-71
2022/09/01 05:02:01;;;;;;;0.22;0.22;;;;;;;;;;10457886;28;20210;-72
2022/09/01 05:07:04;;;;;;;0.20;0.20;;;;;;;;;;10443710;28;20778;-72
2022/09/01 05:12:15;;;;;;;0.45;0.30;;;;;;;;;;10421895;28;20762;-72
2022/09/01 05:17:17;;;;;;;0.25;0.25;;;;;;;;;;10438399;28;20237;-72
2022/09/01 05:22:21;;;;;;;0.80;0.38;;;;;;;;;;10425525;28;20226;-70
2022/09/01 05:27:30;;;;;;;0.30;0.30;;;;;;;;;;10443511;28;20594;-71
2022/09/01 05:32:32;;;;;;;1.08;0.30;;;;;;;;;;10431377;28;20208;-71
2022/09/01 05:37:36;;;;;;;0.20;0.20;;;;;;;;;;10443265;28;20269;-70
2022/09/01 05:42:38;;;;;;;0.20;0.20;;;;;;;;;;10415377;28;20687;-72
2022/09/01 05:47:40;;;;;;;0.15;0.15;;;;;;;;;;10428019;28;20230;-71
2022/09/01 05:52:46;;;;;;;0.22;0.22;;;;;;;;;;10416323;28;20202;-71
2022/09/01 05:57:48;;;;;;;0.20;0.20;;;;;;;;;;10416955;28;20306;-71
2022/09/01 06:02:52;;;;;;;0.20;0.20;;;;;;;;;;10413270;28;20263;-71
2022/09/01 06:07:56;;;;;;;0.90;0.20;;;;;;;;;;10448432;28;20217;-71
2022/09/01 06:13:00;;;;;;;0.60;0.20;;;;;;;;;;10466174;28;20225;-72
2022/09/01 06:18:01;;;;;;;0.60;0.28;;;;;;;;;;10454060;28;20211;-72
2022/09/01 06:23:04;;;;;;;0.30;0.30;;;;;;;;;;10456972;28;20205;-72
2022/09/01 06:28:07;;;;;;;0.45;0.20;;;;;;;;;;10456533;28;20221;-69
2022/09/01 06:33:11;;;;;;;0.10;0.10;;;;;;;;;;10459693;28;20208;-71
2022/09/01 06:38:16;;;;;;;0.20;0.15;;;;;;;;;;10465398;28;20264;-71
2022/09/01 06:43:19;;;;;;;0.20;0.20;;;;;;;;;;10448798;28;20214;-71
2022/09/01 06:48:22;;;;;;;0.20;0.20;;;;;;;;;;10438055;28;20709;-71
2022/09/01 06:53:26;;;;;;;1.80;0.20;;;;;;;;;;10481247;28;20206;-71
2022/09/01 06:58:30;;;;;;;0.10;0.10;;;;;;;;;;10454389;28;20213;-71
2022/09/01 07:03:31;;;;;;;0.13;0.13;;;;;;;;;;10470969;28;20219;-71
2022/09/01 07:08:57;;;;;;;0.20;0.20;;;;;;;;;;10453350;28;20228;-70
2022/09/01 07:14:03;;;;;;;0.20;0.20;;;;;;;;;;10479808;28;20218;-71
2022/09/01 07:19:11;;;;;;;0.20;0.20;;;;;;;;;;10454744;28;20679;-71
2022/09/01 07:24:17;;;;;;;0.15;0.15;;;;;;;;;;10454893;28;20702;-71
2022/09/01 07:29:40;;;;;;;0.20;0.20;;;;;;;;;;10489352;28;20214;-71
2022/09/01 07:34:43;;;;;;;0.20;0.20;;;;;;;;;;10453806;28;20215;-72
2022/09/01 07:39:45;;;;;;;0.38;0.10;;;;;;;;;;10495538;28;20209;-71
2022/09/01 07:45:00;;;;;;;0.15;0.15;;;;;;;;;;10460470;28;24389;-72
2022/09/01 07:50:17;;;;;;;0.17;0.17;;;;;;;;;;10457970;28;20218;-71
2022/09/01 07:55:18;;;;;;;0.20;0.10;;;;;;;;;;10465814;28;20174;-72
2022/09/01 08:00:20;;;;;;;0.10;0.10;;;;;;;;;;10490144;28;20202;-71
2022/09/01 08:05:27;;;;;;;0.20;0.20;;;;;;;;;;10473081;28;20291;-71
2022/09/01 08:10:29;;;;;;;0.20;0.20;;;;;;;;;;10456870;28;20325;-71
2022/09/01 08:15:30;;;;;;;0.30;0.20;;;;;;;;;;10479526;28;20207;-71
2022/09/01 08:20:36;;;;;;;1.08;0.10;;;;;;;;;;10478899;28;20206;-72
2022/09/01 08:25:48;;;;;;;0.10;0.10;;;;;;;;;;10474031;28;20771;-71
2022/09/01 08:30:50;;;;;;;0.10;0.10;;;;;;;;;;10477716;28;20206;-71
2022/09/01 08:35:54;;;;;;;0.10;0.10;;;;;;;;;;10492236;28;20623;-73
2022/09/01 08:40:57;;;;;;;0.10;0.10;;;;;;;;;;10458663;28;20264;-73
2022/09/01 08:46:23;;;;;;;0.10;0.10;;;;;;;;;;10459207;28;20221;-72
2022/09/01 08:51:33;;;;;;;0.20;0.20;;;;;;;;;;10449236;28;20229;-72
2022/09/01 08:56:36;;;;;;;0.10;0.10;;;;;;;;;;10494576;28;20308;-72
2022/09/01 09:01:44;;;;;;;0.10;0.10;;;;;;;;;;10465452;28;21017;-71
2022/09/01 09:06:47;;;;;;;0.20;0.20;;;;;;;;;;10463604;28;20383;-71
2022/09/01 09:12:09;;;;;;;0.20;0.20;;;;;;;;;;10492953;28;20233;-72
2022/09/01 09:17:10;;;;;;;0.10;0.10;;;;;;;;;;10495452;28;20308;-72
2022/09/01 09:22:16;;;;;;;0.10;0.10;;;;;;;;;;10495572;28;20584;-71
2022/09/01 09:27:24;;;;;;;0.13;0.13;;;;;;;;;;10488029;28;20251;-71
2022/09/01 09:32:44;;;;;;;0.10;0.10;;;;;;;;;;10490256;28;20210;-69
2022/09/01 09:37:45;;;;;;;0.10;0.10;;;;;;;;;;10484761;28;21006;-72
2022/09/01 09:43:07;;;;;;;0.10;0.10;;;;;;;;;;10482911;28;20202;-72
2022/09/01 09:48:28;;;;;;;0.03;0.03;;;;;;;;;;10463539;28;20217;-72
2022/09/01 09:53:33;;;;;;;0.03;0.03;;;;;;;;;;10492461;28;20249;-70
2022/09/01 09:58:39;;;;;;;0.00;0.00;;;;;;;;;;10483832;28;20232;-70
2022/09/01 10:03:49;;;;;;;0.20;0.20;;;;;;;;;;10481249;28;20224;-70
2022/09/01 10:08:50;;;;;;;0.10;0.10;;;;;;;;;;10487665;28;20227;-70
2022/09/01 10:13:52;;;;;;;0.00;0.00;;;;;;;;;;10488262;28;20308;-68
2022/09/01 10:18:59;;;;;;;0.10;0.10;;;;;;;;;;10484943;28;20217;-68
2022/09/01 10:24:02;;;;;;;0.10;0.10;;;;;;;;;;10480539;28;20233;-69
2022/09/01 10:29:13;;;;;;;0.08;0.08;;;;;;;;;;10480688;28;20221;-71
2022/09/01 10:34:16;;;;;;;0.10;0.10;;;;;;;;;;10472983;28;20572;-70
2022/09/01 10:39:19;;;;;;;0.10;0.10;;;;;;;;;;10445297;28;20292;-70
2022/09/01 10:44:32;;;;;;;1.13;0.10;;;;;;;;;;10452171;28;20209;-70
2022/09/01 10:49:33;;;;;;;0.10;0.10;;;;;;;;;;10480532;28;20220;-69
2022/09/01 10:54:40;;;;;;;0.10;0.10;;;;;;;;;;10479712;28;20713;-70
2022/09/01 10:59:41;;;;;;;0.20;0.20;;;;;;;;;;10478656;28;20244;-70
2022/09/01 11:04:46;;;;;;;0.10;0.10;;;;;;;;;;10477098;28;20234;-70
2022/09/01 11:10:07;;;;;;;0.10;0.10;;;;;;;;;;10458841;28;20214;-70
2022/09/01 11:15:13;;;;;;;0.10;0.10;;;;;;;;;;10482145;28;20796;-71
2022/09/01 11:20:28;;;;;;;0.20;0.10;;;;;;;;;;10494608;28;20237;-70
2022/09/01 11:25:32;;;;;;;0.10;0.10;;;;;;;;;;10471570;28;20646;-70
2022/09/01 11:30:53;;;;;;;0.10;0.10;;;;;;;;;;10487830;28;20589;-70
2022/09/01 11:36:02;;;;;;;0.10;0.10;;;;;;;;;;10484242;28;20694;-70
2022/09/01 11:41:03;;;;;;;1.60;0.13;;;;;;;;;;10483593;28;20767;-72
2022/09/01 11:46:14;;;;;;;0.10;0.10;;;;;;;;;;10486843;28;20321;-71
2022/09/01 11:51:15;;;;;;;0.10;0.10;;;;;;;;;;10442924;28;20272;-70
2022/09/01 11:56:19;;;;;;;0.00;0.00;;;;;;;;;;10468217;28;20238;-71
2022/09/01 12:01:29;;;;;;;0.10;0.10;;;;;;;;;;10464596;28;20222;-70
2022/09/01 12:06:30;;;;;;;0.10;0.10;;;;;;;;;;10457059;28;20222;-70
2022/09/01 12:11:32;;;;;;;0.10;0.10;;;;;;;;;;10483375;28;20213;-71
2022/09/01 12:16:35;;;;;;;0.10;0.10;;;;;;;;;;10483194;28;20321;-70
2022/09/01 12:21:41;;;;;;;0.08;0.08;;;;;;;;;;10487434;28;20922;-71
2022/09/01 12:26:43;;;;;;;0.10;0.10;;;;;;;;;;10481238;28;20787;-71
2022/09/01 12:31:45;;;;;;;0.10;0.10;;;;;;;;;;10481127;28;20212;-71
2022/09/01 12:37:01;;;;;;;0.10;0.10;;;;;;;;;;10479709;28;20224;-71
2022/09/01 12:42:08;;;;;;;0.15;0.15;;;;;;;;;;10450345;28;20209;-69
2022/09/01 12:47:14;;;;;;;0.10;0.10;;;;;;;;;;10478865;28;20217;-70
2022/09/01 12:52:18;;;;;;;0.10;0.10;;;;;;;;;;10480765;28;20406;-72
2022/09/01 12:57:30;;;;;;;0.10;0.10;;;;;;;;;;10462969;28;20225;-71
2022/09/01 13:02:35;;;;;;;0.03;0.03;;;;;;;;;;10475891;28;20241;-71
2022/09/01 13:07:36;;;;;;;0.10;0.10;;;;;;;;;;10477215;28;20222;-72
2022/09/01 13:12:41;;;;;;;0.00;0.00;;;;;;;;;;10475622;28;20793;-72
2022/09/01 13:17:42;;;;;;;0.10;0.10;;;;;;;;;;10476069;28;20221;-71
2022/09/01 13:22:43;;;;;;;0.10;0.10;;;;;;;;;;10487774;28;20218;-71
2022/09/01 13:27:46;;;;;;;0.10;0.10;;;;;;;;;;10483275;28;20622;-71
2022/09/01 13:32:47;;;;;;;1.10;0.03;;;;;;;;;;10458185;28;20605;-71
2022/09/01 13:37:48;;;;;;;0.10;0.10;;;;;;;;;;10477571;28;20237;-72
2022/09/01 13:42:51;;;;;;;0.10;0.10;;;;;;;;;;10480017;28;20216;-71
2022/09/01 13:47:52;;;;;;;0.20;0.20;;;;;;;;;;10479573;28;20259;-70
2022/09/01 13:52:54;;;;;;;0.10;0.10;;;;;;;;;;10479425;28;20205;-71
2022/09/01 13:57:57;;;;;;;0.10;0.10;;;;;;;;;;10490063;28;20802;-70
2022/09/01 14:03:01;;;;;;;0.10;0.10;;;;;;;;;;10475072;28;20218;-71
2022/09/01 14:08:03;;;;;;;0.10;0.10;;;;;;;;;;10479684;28;20232;-71
2022/09/01 14:13:05;;;;;;;0.10;0.10;;;;;;;;;;10450529;28;20276;-71
2022/09/01 14:18:06;;;;;;;0.10;0.10;;;;;;;;;;10487966;28;20711;-71
2022/09/01 14:23:09;;;;;;;0.10;0.10;;;;;;;;;;10477837;28;20360;-71
2022/09/01 14:28:11;;;;;;;0.10;0.10;;;;;;;;;;10482151;28;20230;-71
2022/09/01 14:33:12;;;;;;;0.10;0.10;;;;;;;;;;10457074;28;20244;-71
2022/09/01 14:38:13;;;;;;;0.10;0.10;;;;;;;;;;10486433;28;21403;-71
2022/09/01 14:43:14;;;;;;;0.10;0.10;;;;;;;;;;10465080;28;20736;-70
2022/09/01 14:48:16;;;;;;;0.10;0.10;;;;;;;;;;10469553;28;20278;-71
2022/09/01 14:53:18;;;;;;;0.10;0.10;;;;;;;;;;10486318;28;20286;-70
2022/09/01 14:58:19;;;;;;;0.20;0.20;;;;;;;;;;10488237;28;20218;-71
2022/09/01 15:03:20;;;;;;;0.10;0.10;;;;;;;;;;10491616;28;20214;-70
2022/09/01 15:08:22;;;;;;;0.10;0.10;;;;;;;;;;10491759;28;20328;-71
2022/09/01 15:13:24;;;;;;;0.30;0.15;;;;;;;;;;10497893;28;20271;-71
2022/09/01 15:18:25;;;;;;;0.10;0.10;;;;;;;;;;10490560;28;20693;-71
2022/09/01 15:23:26;;;;;;;0.10;0.10;;;;;;;;;;10489074;28;20224;-69
2022/09/01 15:28:27;;;;;;;0.10;0.10;;;;;;;;;;10458735;28;21836;-70
2022/09/01 15:33:28;;;;;;;0.10;0.10;;;;;;;;;;10478506;28;20555;-70
2022/09/01 15:38:29;;;;;;;0.10;0.10;;;;;;;;;;10482497;28;20214;-73
2022/09/01 15:43:31;;;;;;;0.10;0.10;;;;;;;;;;10455543;28;20324;-72
2022/09/01 15:48:32;;;;;;;0.10;0.10;;;;;;;;;;10482805;28;20973;-72
2022/09/01 15:53:33;;;;;;;0.10;0.10;;;;;;;;;;10462880;28;20209;-72
2022/09/01 15:58:34;;;;;;;1.20;0.10;;;;;;;;;;10488841;28;20257;-73
2022/09/01 16:03:35;;;;;;;0.10;0.10;;;;;;;;;;10490099;28;20263;-72
2022/09/01 16:08:36;;;;;;;0.20;0.20;;;;;;;;;;10493317;28;20218;-68
2022/09/01 16:13:41;;;;;;;0.20;0.20;;;;;;;;;;10479803;28;20371;-67
2022/09/01 16:19:05;;;;;;;0.10;0.10;;;;;;;;;;10457445;28;20225;-72
2022/09/01 16:24:10;;;;;;;0.15;0.15;;;;;;;;;;10440635;28;20210;-72
2022/09/01 16:29:19;;;;;;;0.10;0.10;;;;;;;;;;10452179;28;20217;-71
2022/09/01 16:34:21;;;;;;;0.10;0.10;;;;;;;;;;10483686;28;20222;-71
2022/09/01 16:39:22;;;;;;;0.10;0.10;;;;;;;;;;10483979;28;20225;-71
2022/09/01 16:44:38;;;;;;;0.10;0.10;;;;;;;;;;10488429;28;20227;-70
2022/09/01 16:49:48;;;;;;;0.10;0.10;;;;;;;;;;10458921;28;20222;-72
2022/09/01 16:55:11;;;;;;;0.10;0.10;;;;;;;;;;10479707;28;20303;-71
2022/09/01 17:00:15;;;;;;;0.20;0.20;;;;;;;;;;10460268;28;20974;-72
2022/09/01 17:05:26;;;;;;;0.10;0.10;;;;;;;;;;10490008;28;20226;-72
2022/09/01 17:10:39;;;;;;;0.17;0.17;;;;;;;;;;10464079;28;20229;-71
2022/09/01 17:15:42;;;;;;;0.10;0.10;;;;;;;;;;10474284;28;21274;-74
2022/09/01 17:20:47;;;;;;;0.10;0.10;;;;;;;;;;10494634;28;20681;-73
2022/09/01 17:25:51;;;;;;;0.20;0.20;;;;;;;;;;10489006;28;20738;-72
2022/09/01 17:31:16;;;;;;;0.10;0.10;;;;;;;;;;10486650;28;20217;-74
2022/09/01 17:36:18;;;;;;;0.20;0.20;;;;;;;;;;10477078;28;20225;-73
2022/09/01 17:41:33;;;;;;;0.10;0.10;;;;;;;;;;10494756;28;20859;-70
2022/09/01 17:46:53;;;;;;;0.10;0.10;;;;;;;;;;10490724;28;20205;-72
2022/09/01 17:52:10;;;;;;;0.17;0.17;;;;;;;;;;10480155;28;20218;-74
2022/09/01 17:57:15;;;;;;;0.10;0.10;;;;;;;;;;10489642;28;20282;-72
2022/09/01 18:02:35;;;;;;;0.10;0.10;;;;;;;;;;10488855;28;20224;-73
2022/09/01 18:07:43;;;;;;;0.13;0.13;;;;;;;;;;10489229;28;20252;-73
2022/09/01 18:12:44;;;;;;;0.17;0.17;;;;;;;;;;10483305;28;20218;-73
2022/09/01 18:17:49;;;;;;;0.10;0.10;;;;;;;;;;10482272;28;20218;-74
2022/09/01 18:22:55;;;;;;;0.13;0.13;;;;;;;;;;10448626;28;20248;-73
2022/09/01 18:27:56;;;;;;;0.20;0.20;;;;;;;;;;10472407;28;20712;-75
2022/09/01 18:33:05;;;;;;;0.20;0.20;;;;;;;;;;10482249;28;20209;-73
2022/09/01 18:38:14;;;;;;;0.38;0.20;;;;;;;;;;10475909;28;21041;-71
2022/09/01 18:43:32;;;;;;;0.20;0.20;;;;;;;;;;10480106;28;20596;-72
2022/09/01 18:48:36;;;;;;;0.20;0.20;;;;;;;;;;10475517;28;20252;-72
2022/09/01 18:53:44;;;;;;;0.10;0.10;;;;;;;;;;10485059;28;20222;-71
2022/09/01 18:58:52;;;;;;;0.20;0.20;;;;;;;;;;10480727;28;20245;-72
2022/09/01 19:04:16;;;;;;;0.20;0.20;;;;;;;;;;10478839;28;20206;-71
2022/09/01 19:09:27;;;;;;;0.20;0.20;;;;;;;;;;10458900;28;20213;-72
2022/09/01 19:14:28;;;;;;;0.20;0.20;;;;;;;;;;10459690;28;20221;-71
2022/09/01 19:19:33;;;;;;;0.65;0.28;;;;;;;;;;10489627;28;20219;-71
2022/09/01 19:24:53;;;;;;;0.25;0.20;;;;;;;;;;10485304;28;20627;-71
2022/09/01 19:29:56;;;;;;;0.10;0.10;;;;;;;;;;10490258;28;20210;-71
2022/09/01 19:34:58;;;;;;;0.20;0.20;;;;;;;;;;10463644;28;20225;-71
2022/09/01 19:39:59;;;;;;;0.20;0.20;;;;;;;;;;10490139;28;20271;-71
2022/09/01 19:45:06;;;;;;;0.15;0.15;;;;;;;;;;10490549;28;20287;-71
2022/09/01 19:50:11;;;;;;;0.30;0.20;;;;;;;;;;10496118;28;20304;-71
2022/09/01 19:55:16;;;;;;;0.20;0.20;;;;;;;;;;10497915;28;20874;-71
2022/09/01 20:00:20;;;;;;;0.60;0.20;;;;;;;;;;10504805;28;20244;-71
2022/09/01 20:05:25;;;;;;;0.45;0.20;;;;;;;;;;10496895;28;20211;-72
2022/09/01 20:10:36;;;;;;;0.10;0.10;;;;;;;;;;10488024;28;20294;-71
2022/09/01 20:15:45;;;;;;;0.20;0.20;;;;;;;;;;10495581;28;20239;-71
2022/09/01 20:20:47;;;;;;;0.10;0.10;;;;;;;;;;10492029;28;20279;-72
2022/09/01 20:25:51;;;;;;;0.10;0.10;;;;;;;;;;10495672;28;20215;-71
2022/09/01 20:30:56;;;;;;;0.10;0.10;;;;;;;;;;10482398;28;20226;-71
2022/09/01 20:36:02;;;;;;;0.25;0.20;;;;;;;;;;10493656;28;20233;-71
2022/09/01 20:41:08;;;;;;;0.45;0.20;;;;;;;;;;10465616;28;20303;-72
2022/09/01 20:46:09;;;;;;;0.20;0.20;;;;;;;;;;10492499;28;20229;-71
2022/09/01 20:51:14;;;;;;;0.20;0.20;;;;;;;;;;10495783;28;20210;-72
2022/09/01 20:56:24;;;;;;;0.10;0.10;;;;;;;;;;10500050;28;20263;-72
2022/09/01 21:01:31;;;;;;;0.15;0.15;;;;;;;;;;10494969;28;20257;-72
2022/09/01 21:06:47;;;;;;;0.17;0.17;;;;;;;;;;10495865;28;20218;-71
2022/09/01 21:11:56;;;;;;;0.22;0.22;;;;;;;;;;10498202;28;20233;-71
2022/09/01 21:17:02;;;;;;;0.10;0.10;;;;;;;;;;10461140;28;21172;-71
2022/09/01 21:22:10;;;;;;;0.17;0.17;;;;;;;;;;10491121;28;20293;-71
2022/09/01 21:27:14;;;;;;;0.20;0.20;;;;;;;;;;10494787;28;20276;-71
2022/09/01 21:32:16;;;;;;;0.30;0.30;;;;;;;;;;10487524;28;20352;-72
2022/09/01 21:37:29;;;;;;;0.20;0.20;;;;;;;;;;10475531;28;20689;-74
2022/09/01 21:42:37;;;;;;;0.20;0.20;;;;;;;;;;10493679;28;20209;-71
2022/09/01 21:47:39;;;;;;;0.20;0.20;;;;;;;;;;10492323;28;20259;-71
2022/09/01 21:52:40;;;;;;;0.30;0.30;;;;;;;;;;10494734;28;20221;-71
2022/09/01 21:57:42;;;;;;;0.20;0.20;;;;;;;;;;10497901;28;20252;-71
2022/09/01 22:02:43;;;;;;;0.20;0.20;;;;;;;;;;10490929;28;20662;-71
2022/09/01 22:07:45;;;;;;;0.20;0.20;;;;;;;;;;10456572;28;20282;-71
2022/09/01 22:12:47;;;;;;;0.20;0.20;;;;;;;;;;10451727;28;20864;-71
2022/09/01 22:17:49;;;;;;;0.20;0.20;;;;;;;;;;10447326;28;20226;-71
2022/09/01 22:22:50;;;;;;;0.20;0.20;;;;;;;;;;10452787;28;20214;-71
2022/09/01 22:27:51;;;;;;;0.55;0.20;;;;;;;;;;10432703;28;20870;-71
2022/09/01 22:32:52;;;;;;;0.20;0.20;;;;;;;;;;10414560;28;20944;-72
2022/09/01 22:37:54;;;;;;;0.20;0.20;;;;;;;;;;10442446;28;20697;-71
2022/09/01 22:42:55;;;;;;;0.13;0.13;;;;;;;;;;10451191;28;20219;-72
2022/09/01 22:47:56;;;;;;;0.28;0.20;;;;;;;;;;10447321;28;20268;-72
2022/09/01 22:52:57;;;;;;;0.30;0.30;;;;;;;;;;10448835;28;20321;-72
2022/09/01 22:57:58;;;;;;;0.30;0.30;;;;;;;;;;10451526;28;20225;-71
2022/09/01 23:03:00;;;;;;;0.28;0.22;;;;;;;;;;10455621;28;20260;-72
2022/09/01 23:08:02;;;;;;;0.70;0.30;;;;;;;;;;10501477;28;20226;-71
2022/09/01 23:13:03;;;;;;;0.30;0.30;;;;;;;;;;10499194;28;20217;-71
2022/09/01 23:18:04;;;;;;;1.80;0.30;;;;;;;;;;10497093;28;20269;-71
2022/09/01 23:23:05;;;;;;;0.28;0.28;;;;;;;;;;10493705;28;20223;-72
2022/09/01 23:28:08;;;;;;;0.30;0.30;;;;;;;;;;10490662;28;20218;-71
2022/09/01 23:33:09;;;;;;;0.10;0.10;;;;;;;;;;10464963;28;20214;-71
2022/09/01 23:38:11;;;;;;;0.20;0.20;;;;;;;;;;10495460;28;20221;-71
2022/09/01 23:43:12;;;;;;;0.20;0.20;;;;;;;;;;10463832;28;20242;-71
2022/09/01 23:48:14;;;;;;;0.20;0.20;;;;;;;;;;10488982;28;20214;-71
2022/09/01 23:53:16;;;;;;;0.30;0.30;;;;;;;;;;10493961;28;20233;-71
2022/09/01 23:58:18;;;;;;;0.30;0.20;;;;;;;;;;10493940;28;20218;-71
